Time;durP1;ratioP1;P1;durP2;ratioP2;P2;SDS_P1;SDS_P2;PMS_P1;PMS_P2;Temp;Humidity;BMP_temperature;BMP_pressure;BME280_temperature;BME280_humidity;BME280_pressure;Samples;Min_cycle;Max_cycle;Signal;HPM_P1;HPM_P2
2022/05/08 00:02:14;;;;;;;10.32;9.70;;;;;;;;;;5065302;28;20040;-67
2022/05/08 00:04:39;;;;;;;10.88;10.13;;;;;;;;;;5064272;28;20025;-67
2022/05/08 00:07:05;;;;;;;10.38;9.73;;;;;;;;;;5066325;28;20032;-67
2022/05/08 00:09:31;;;;;;;12.77;11.98;;;;;;;;;;5065773;28;20075;-68
2022/05/08 00:11:56;;;;;;;10.85;10.18;;;;;;;;;;5063686;28;20024;-68
2022/05/08 00:14:22;;;;;;;10.63;9.93;;;;;;;;;;5064313;28;20086;-68
2022/05/08 00:16:47;;;;;;;11.70;11.00;;;;;;;;;;5064978;28;20032;-67
2022/05/08 00:19:12;;;;;;;12.98;12.07;;;;;;;;;;5063454;28;20102;-68
2022/05/08 00:21:39;;;;;;;14.40;13.48;;;;;;;;;;5064948;28;20028;-68
2022/05/08 00:24:05;;;;;;;11.68;10.90;;;;;;;;;;5065609;28;20036;-68
2022/05/08 00:26:30;;;;;;;11.73;11.00;;;;;;;;;;5065121;28;20457;-67
2022/05/08 00:28:56;;;;;;;16.35;15.35;;;;;;;;;;5063944;28;20070;-67
2022/05/08 00:31:21;;;;;;;15.25;14.25;;;;;;;;;;5065152;28;20030;-68
2022/05/08 00:33:46;;;;;;;15.88;14.95;;;;;;;;;;5064152;28;20082;-67
2022/05/08 00:36:12;;;;;;;15.82;14.63;;;;;;;;;;5080938;28;20099;-68
2022/05/08 00:38:37;;;;;;;14.15;13.30;;;;;;;;;;5064274;28;20036;-67
2022/05/08 00:41:03;;;;;;;14.75;13.90;;;;;;;;;;5063848;28;20055;-68
2022/05/08 00:43:34;;;;;;;15.05;14.10;;;;;;;;;;5065452;28;20036;-67
2022/05/08 00:46:01;;;;;;;15.48;14.60;;;;;;;;;;5064463;28;20025;-67
2022/05/08 00:48:27;;;;;;;16.67;15.68;;;;;;;;;;5064278;28;20047;-68
2022/05/08 00:50:53;;;;;;;15.15;14.18;;;;;;;;;;5063215;28;20036;-68
2022/05/08 00:53:19;;;;;;;15.63;14.73;;;;;;;;;;5064269;28;20028;-67
2022/05/08 00:55:45;;;;;;;17.42;16.42;;;;;;;;;;5064473;28;20425;-67
2022/05/08 00:58:11;;;;;;;14.90;14.00;;;;;;;;;;5062667;28;20035;-68
2022/05/08 01:00:36;;;;;;;15.68;14.77;;;;;;;;;;5065158;28;20469;-67
2022/05/08 01:03:03;;;;;;;17.75;16.75;;;;;;;;;;5063578;28;20123;-68
2022/05/08 01:05:29;;;;;;;14.70;13.80;;;;;;;;;;5062476;28;20048;-68
2022/05/08 01:07:54;;;;;;;19.25;18.17;;;;;;;;;;5063788;28;20024;-68
2022/05/08 01:10:19;;;;;;;16.23;15.23;;;;;;;;;;5065077;28;20039;-68
2022/05/08 01:12:45;;;;;;;17.75;16.75;;;;;;;;;;5063135;28;20648;-68
2022/05/08 01:15:17;;;;;;;18.02;16.98;;;;;;;;;;5064693;28;20048;-67
2022/05/08 01:17:44;;;;;;;17.92;16.83;;;;;;;;;;5078922;28;20058;-61
2022/05/08 01:20:09;;;;;;;17.75;16.55;;;;;;;;;;5063492;28;20498;-61
2022/05/08 01:22:35;;;;;;;14.88;13.70;;;;;;;;;;5063724;28;20028;-61
2022/05/08 01:25:00;;;;;;;17.10;16.10;;;;;;;;;;5064304;28;20047;-61
2022/05/08 01:27:26;;;;;;;18.05;17.05;;;;;;;;;;5063810;28;20355;-61
2022/05/08 01:29:51;;;;;;;15.40;14.50;;;;;;;;;;5064268;28;20032;-61
2022/05/08 01:32:17;;;;;;;13.55;12.75;;;;;;;;;;5065313;28;20422;-61
2022/05/08 01:34:42;;;;;;;15.48;14.57;;;;;;;;;;5062090;28;20036;-61
2022/05/08 01:37:08;;;;;;;14.25;13.35;;;;;;;;;;5064079;28;20143;-61
2022/05/08 01:39:33;;;;;;;17.48;16.27;;;;;;;;;;5063611;28;20321;-61
2022/05/08 01:41:58;;;;;;;15.73;14.82;;;;;;;;;;5063326;28;20024;-61
2022/05/08 01:44:24;;;;;;;14.32;13.43;;;;;;;;;;5062611;28;20370;-61
2022/05/08 01:48:21;;;;;;;14.63;13.73;;;;;;;;;;5064704;28;20515;-61
2022/05/08 01:49:35;;;;;;;14.40;13.55;;;;;;;;;;5062948;28;20129;-61
2022/05/08 01:52:00;;;;;;;15.30;14.40;;;;;;;;;;5062555;28;20032;-61
2022/05/08 01:54:25;;;;;;;15.43;14.52;;;;;;;;;;5063456;28;20047;-61
2022/05/08 01:56:51;;;;;;;12.98;12.18;;;;;;;;;;5062495;28;20047;-61
2022/05/08 01:59:16;;;;;;;11.77;11.07;;;;;;;;;;5064151;28;20032;-61
2022/05/08 02:01:44;;;;;;;15.40;14.48;;;;;;;;;;5063564;28;20024;-61
2022/05/08 02:04:15;;;;;;;14.48;13.48;;;;;;;;;;5063214;28;20040;-61
2022/05/08 02:06:41;;;;;;;14.50;13.60;;;;;;;;;;5062416;28;20040;-61
2022/05/08 02:09:06;;;;;;;12.05;11.35;;;;;;;;;;5061081;28;20039;-61
2022/05/08 02:11:32;;;;;;;12.93;12.13;;;;;;;;;;5057993;28;20375;-61
2022/05/08 02:13:58;;;;;;;12.18;11.45;;;;;;;;;;5062045;28;20048;-61
2022/05/08 02:16:25;;;;;;;12.23;11.43;;;;;;;;;;5063163;28;20143;-61
2022/05/08 02:18:50;;;;;;;10.85;10.15;;;;;;;;;;5063168;28;20028;-63
2022/05/08 02:21:16;;;;;;;9.85;9.15;;;;;;;;;;5062786;28;20521;-62
2022/05/08 02:23:42;;;;;;;11.48;10.70;;;;;;;;;;5064257;28;20024;-62
2022/05/08 02:26:07;;;;;;;10.05;9.35;;;;;;;;;;5061855;28;20035;-61
2022/05/08 02:28:33;;;;;;;8.23;7.63;;;;;;;;;;5064088;28;20032;-62
2022/05/08 02:30:58;;;;;;;7.68;7.18;;;;;;;;;;5062182;28;20678;-61
2022/05/08 02:33:23;;;;;;;7.35;6.82;;;;;;;;;;5064528;28;20044;-61
2022/05/08 02:35:49;;;;;;;7.18;6.68;;;;;;;;;;5062407;28;20040;-61
2022/05/08 02:38:14;;;;;;;6.95;6.45;;;;;;;;;;5061978;28;20110;-61
2022/05/08 02:40:40;;;;;;;6.10;5.70;;;;;;;;;;5063265;28;20450;-61
2022/05/08 02:43:05;;;;;;;7.10;6.50;;;;;;;;;;5061321;28;20051;-61
2022/05/08 02:45:31;;;;;;;6.53;6.03;;;;;;;;;;5062624;28;20056;-61
2022/05/08 02:47:57;;;;;;;7.30;6.70;;;;;;;;;;5061776;28;20040;-61
2022/05/08 02:50:24;;;;;;;8.70;6.47;;;;;;;;;;5062631;28;20059;-61
2022/05/08 02:52:50;;;;;;;6.65;6.15;;;;;;;;;;5062319;28;20024;-61
2022/05/08 03:00:46;;;;;;;6.80;6.20;;;;;;;;;;5062600;28;20064;-61
2022/05/08 03:03:13;;;;;;;7.20;6.63;;;;;;;;;;5063262;28;20035;-61
2022/05/08 03:05:42;;;;;;;7.18;6.68;;;;;;;;;;5066196;28;20425;-61
2022/05/08 03:08:08;;;;;;;7.82;7.20;;;;;;;;;;5065767;28;20586;-61
2022/05/08 03:13:17;;;;;;;7.18;6.55;;;;;;;;;;5066765;28;20049;-62
2022/05/08 03:15:42;;;;;;;6.47;5.97;;;;;;;;;;5066110;28;20397;-61
2022/05/08 03:18:08;;;;;;;5.35;4.95;;;;;;;;;;5066768;28;20057;-61
2022/05/08 03:20:33;;;;;;;6.32;5.82;;;;;;;;;;5066386;28;20037;-61
2022/05/08 03:22:59;;;;;;;6.45;5.85;;;;;;;;;;5065085;28;20047;-61
2022/05/08 03:25:25;;;;;;;5.97;5.45;;;;;;;;;;5065912;28;20028;-61
2022/05/08 03:27:51;;;;;;;6.22;5.72;;;;;;;;;;5065379;28;20834;-61
2022/05/08 03:30:16;;;;;;;7.07;6.47;;;;;;;;;;5066892;28;20143;-61
2022/05/08 03:32:41;;;;;;;6.10;5.63;;;;;;;;;;5065740;28;20077;-61
2022/05/08 03:35:07;;;;;;;7.10;6.40;;;;;;;;;;5065434;28;20230;-61
2022/05/08 03:37:33;;;;;;;6.95;6.45;;;;;;;;;;5065830;28;20145;-61
2022/05/08 03:39:59;;;;;;;6.68;6.18;;;;;;;;;;5065633;28;20074;-61
2022/05/08 03:42:24;;;;;;;6.15;5.65;;;;;;;;;;5064960;28;20037;-61
2022/05/08 03:44:53;;;;;;;6.82;6.32;;;;;;;;;;5065855;28;20059;-61
2022/05/08 03:47:19;;;;;;;7.13;6.60;;;;;;;;;;5064540;28;20145;-61
2022/05/08 03:49:45;;;;;;;7.65;7.05;;;;;;;;;;5066037;28;20028;-61
2022/05/08 03:52:10;;;;;;;7.70;7.10;;;;;;;;;;5064095;28;20477;-61
2022/05/08 03:54:35;;;;;;;6.85;6.35;;;;;;;;;;5065880;28;20086;-61
2022/05/08 03:57:01;;;;;;;9.32;8.70;;;;;;;;;;5065173;28;20040;-61
2022/05/08 03:59:26;;;;;;;7.38;6.85;;;;;;;;;;5063463;28;20044;-61
2022/05/08 04:01:54;;;;;;;8.45;7.90;;;;;;;;;;5064309;28;20017;-61
2022/05/08 04:04:20;;;;;;;8.38;7.78;;;;;;;;;;5066066;28;20028;-61
2022/05/08 04:06:45;;;;;;;8.02;7.47;;;;;;;;;;5080646;28;20028;-61
2022/05/08 04:09:11;;;;;;;8.50;7.90;;;;;;;;;;5064476;28;20421;-61
2022/05/08 04:11:36;;;;;;;8.43;7.82;;;;;;;;;;5065847;28;20028;-61
2022/05/08 04:14:01;;;;;;;7.75;7.22;;;;;;;;;;5064376;28;20128;-61
2022/05/08 04:16:27;;;;;;;7.53;7.03;;;;;;;;;;5063214;28;20090;-61
2022/05/08 04:18:52;;;;;;;7.28;6.57;;;;;;;;;;5065308;28;20020;-61
2022/05/08 04:21:18;;;;;;;7.80;7.22;;;;;;;;;;5065489;28;20081;-61
2022/05/08 04:26:30;;;;;;;7.20;6.60;;;;;;;;;;5078320;28;20031;-61
2022/05/08 04:28:56;;;;;;;7.07;6.57;;;;;;;;;;5065323;28;20037;-61
2022/05/08 04:31:22;;;;;;;8.18;7.55;;;;;;;;;;5065132;28;20028;-61
2022/05/08 04:33:47;;;;;;;7.28;6.78;;;;;;;;;;5063849;28;20059;-61
2022/05/08 04:36:13;;;;;;;7.10;6.60;;;;;;;;;;5065100;28;20455;-61
2022/05/08 04:38:39;;;;;;;8.35;7.72;;;;;;;;;;5058601;28;20032;-60
2022/05/08 04:41:05;;;;;;;9.20;8.60;;;;;;;;;;5064781;28;20570;-61
2022/05/08 04:43:30;;;;;;;11.43;10.65;;;;;;;;;;5062523;28;20040;-61
2022/05/08 04:45:55;;;;;;;11.15;10.43;;;;;;;;;;5047068;28;20440;-61
2022/05/08 04:48:21;;;;;;;11.95;11.23;;;;;;;;;;5064380;28;20028;-61
2022/05/08 04:50:46;;;;;;;13.00;12.20;;;;;;;;;;5064983;28;20086;-62
2022/05/08 04:53:11;;;;;;;12.93;12.13;;;;;;;;;;5064420;28;20047;-61
2022/05/08 04:55:37;;;;;;;11.65;10.60;;;;;;;;;;5064463;28;20040;-61
2022/05/08 04:58:02;;;;;;;15.10;13.90;;;;;;;;;;5064023;28;20028;-61
2022/05/08 05:00:28;;;;;;;13.43;12.57;;;;;;;;;;5063600;28;20097;-61
2022/05/08 05:02:53;;;;;;;15.65;14.70;;;;;;;;;;5063596;28;20064;-61
2022/05/08 05:05:19;;;;;;;15.45;14.35;;;;;;;;;;5063342;28;20552;-62
2022/05/08 05:07:44;;;;;;;16.50;15.52;;;;;;;;;;5065361;28;20613;-61
2022/05/08 05:10:11;;;;;;;14.65;13.80;;;;;;;;;;5062727;28;20378;-62
2022/05/08 05:12:38;;;;;;;22.02;20.83;;;;;;;;;;5064403;28;20038;-62
2022/05/08 05:15:05;;;;;;;17.77;16.75;;;;;;;;;;5064251;28;20081;-62
2022/05/08 05:17:31;;;;;;;17.52;16.52;;;;;;;;;;5063468;28;20047;-62
2022/05/08 05:19:56;;;;;;;12.80;12.00;;;;;;;;;;5062996;28;20040;-62
2022/05/08 05:22:22;;;;;;;19.10;18.05;;;;;;;;;;5064445;28;20056;-61
2022/05/08 05:24:48;;;;;;;18.92;17.85;;;;;;;;;;5063209;28;20063;-61
2022/05/08 05:27:13;;;;;;;14.55;13.55;;;;;;;;;;5063260;28;20060;-62
2022/05/08 05:29:38;;;;;;;14.00;13.18;;;;;;;;;;5064668;28;20457;-62
2022/05/08 05:32:04;;;;;;;13.70;12.85;;;;;;;;;;5063544;28;20919;-61
2022/05/08 05:34:29;;;;;;;17.67;16.65;;;;;;;;;;5063942;28;20086;-61
2022/05/08 05:36:55;;;;;;;18.13;17.13;;;;;;;;;;5063373;28;20614;-61
2022/05/08 05:39:21;;;;;;;13.23;10.88;;;;;;;;;;5063525;28;20044;-61
2022/05/08 05:41:47;;;;;;;11.18;10.38;;;;;;;;;;5063834;28;20028;-61
2022/05/08 05:44:12;;;;;;;11.52;10.70;;;;;;;;;;5063569;28;20469;-61
2022/05/08 05:49:21;;;;;;;11.38;10.65;;;;;;;;;;5062403;28;20417;-61
2022/05/08 05:51:47;;;;;;;13.95;12.95;;;;;;;;;;5064688;28;20039;-61
2022/05/08 05:54:12;;;;;;;12.82;11.95;;;;;;;;;;5063004;28;20493;-61
2022/05/08 05:56:37;;;;;;;12.20;11.30;;;;;;;;;;5064061;28;20136;-62
2022/05/08 05:59:03;;;;;;;14.85;13.95;;;;;;;;;;5063610;28;20068;-62
2022/05/08 06:01:28;;;;;;;15.38;14.45;;;;;;;;;;5063381;28;20043;-62
2022/05/08 06:03:54;;;;;;;19.15;18.08;;;;;;;;;;5062844;28;20494;-62
2022/05/08 06:06:19;;;;;;;15.43;14.38;;;;;;;;;;5063413;28;20036;-61
2022/05/08 06:08:46;;;;;;;15.43;14.25;;;;;;;;;;5063231;28;20032;-62
2022/05/08 06:11:12;;;;;;;13.50;12.68;;;;;;;;;;5062814;28;21685;-61
2022/05/08 06:13:37;;;;;;;12.40;11.63;;;;;;;;;;5063114;28;20044;-61
2022/05/08 06:16:03;;;;;;;17.00;15.90;;;;;;;;;;5063826;28;20073;-61
2022/05/08 06:18:29;;;;;;;16.30;15.32;;;;;;;;;;5062482;28;20381;-61
2022/05/08 06:20:54;;;;;;;18.83;17.73;;;;;;;;;;5062879;28;20032;-61
2022/05/08 06:23:20;;;;;;;16.50;15.48;;;;;;;;;;5063759;28;20028;-61
2022/05/08 06:25:45;;;;;;;14.20;13.32;;;;;;;;;;5062303;28;20111;-62
2022/05/08 06:28:11;;;;;;;13.60;12.40;;;;;;;;;;5062848;28;20033;-62
2022/05/08 06:30:36;;;;;;;9.90;9.20;;;;;;;;;;5062984;28;20047;-62
2022/05/08 06:33:02;;;;;;;12.75;11.95;;;;;;;;;;5064097;28;20028;-62
2022/05/08 06:35:27;;;;;;;11.43;10.65;;;;;;;;;;5062306;28;20112;-61
2022/05/08 06:37:54;;;;;;;17.13;16.02;;;;;;;;;;5062338;28;20064;-63
2022/05/08 06:40:19;;;;;;;12.27;11.38;;;;;;;;;;5067510;28;20067;-63
2022/05/08 06:42:45;;;;;;;9.68;9.02;;;;;;;;;;5066450;28;20134;-62
2022/05/08 06:45:10;;;;;;;15.68;14.38;;;;;;;;;;5066974;28;20032;-62
2022/05/08 06:47:36;;;;;;;13.70;12.75;;;;;;;;;;5067396;28;20032;-62
2022/05/08 06:50:01;;;;;;;17.75;16.65;;;;;;;;;;5066204;28;20032;-61
2022/05/08 06:52:27;;;;;;;15.65;14.60;;;;;;;;;;5066671;28;20028;-61
2022/05/08 06:54:52;;;;;;;17.02;16.02;;;;;;;;;;5066879;28;20385;-62
2022/05/08 06:57:18;;;;;;;12.88;12.05;;;;;;;;;;5066065;28;20098;-62
2022/05/08 07:02:27;;;;;;;14.90;13.98;;;;;;;;;;5066234;28;20036;-61
2022/05/08 07:04:52;;;;;;;17.73;16.33;;;;;;;;;;5065395;28;20032;-61
2022/05/08 07:07:18;;;;;;;14.13;13.23;;;;;;;;;;5066922;28;20033;-60
2022/05/08 07:09:44;;;;;;;17.60;16.60;;;;;;;;;;5066190;28;20036;-61
2022/05/08 07:12:09;;;;;;;18.58;17.50;;;;;;;;;;5066851;28;20378;-60
2022/05/08 07:14:35;;;;;;;12.32;11.52;;;;;;;;;;5066486;28;20594;-61
2022/05/08 07:17:00;;;;;;;9.43;8.73;;;;;;;;;;5066874;28;20401;-61
2022/05/08 07:19:25;;;;;;;9.35;8.48;;;;;;;;;;5064739;28;20051;-61
2022/05/08 07:21:51;;;;;;;9.82;9.15;;;;;;;;;;5081788;28;20505;-60
2022/05/08 07:24:16;;;;;;;9.80;9.10;;;;;;;;;;5066644;28;20086;-61
2022/05/08 07:26:42;;;;;;;8.85;8.23;;;;;;;;;;5059327;28;20672;-61
2022/05/08 07:29:07;;;;;;;12.23;11.48;;;;;;;;;;5066165;28;20047;-61
2022/05/08 07:31:32;;;;;;;9.70;9.00;;;;;;;;;;5066300;28;20025;-61
2022/05/08 07:36:42;;;;;;;9.82;9.23;;;;;;;;;;5066333;28;20036;-60
2022/05/08 07:39:08;;;;;;;11.77;11.00;;;;;;;;;;5065415;28;20907;-60
2022/05/08 07:41:33;;;;;;;12.43;11.63;;;;;;;;;;5065864;28;20058;-60
2022/05/08 07:43:59;;;;;;;14.40;13.50;;;;;;;;;;5064276;28;20032;-60
2022/05/08 07:46:25;;;;;;;12.45;11.65;;;;;;;;;;5066642;28;20021;-60
2022/05/08 07:48:51;;;;;;;16.40;15.38;;;;;;;;;;5064980;28;20055;-60
2022/05/08 07:51:16;;;;;;;18.23;17.13;;;;;;;;;;5064317;28;20036;-60
2022/05/08 07:53:41;;;;;;;22.90;21.60;;;;;;;;;;5065570;28;20036;-60
2022/05/08 07:56:07;;;;;;;16.92;15.82;;;;;;;;;;5065534;28;20504;-60
2022/05/08 07:58:32;;;;;;;21.00;19.85;;;;;;;;;;5065832;28;20121;-60
2022/05/08 08:00:59;;;;;;;15.32;14.32;;;;;;;;;;5065699;28;20032;-60
2022/05/08 08:03:26;;;;;;;31.40;29.70;;;;;;;;;;5065823;28;20052;-60
2022/05/08 08:05:52;;;;;;;30.10;28.52;;;;;;;;;;5065142;28;20633;-60
2022/05/08 08:08:21;;;;;;;35.65;33.75;;;;;;;;;;5064523;28;20043;-60
2022/05/08 08:10:47;;;;;;;28.58;27.02;;;;;;;;;;5065570;28;20119;-60
2022/05/08 08:13:13;;;;;;;33.00;31.27;;;;;;;;;;5065340;28;20036;-60
2022/05/08 08:15:39;;;;;;;31.10;29.42;;;;;;;;;;5064760;28;20032;-60
2022/05/08 08:18:05;;;;;;;27.85;26.33;;;;;;;;;;5065918;28;20059;-60
2022/05/08 08:20:31;;;;;;;38.03;36.05;;;;;;;;;;5064152;28;20381;-60
2022/05/08 08:22:56;;;;;;;37.42;35.42;;;;;;;;;;5065102;28;20029;-60
2022/05/08 08:25:22;;;;;;;41.72;39.60;;;;;;;;;;5064693;28;20413;-61
2022/05/08 08:27:47;;;;;;;45.50;43.17;;;;;;;;;;5064888;28;20728;-61
2022/05/08 08:30:13;;;;;;;32.90;31.15;;;;;;;;;;5065687;28;20036;-60
2022/05/08 08:32:39;;;;;;;26.23;24.83;;;;;;;;;;5063709;28;20029;-61
2022/05/08 08:35:05;;;;;;;43.10;40.83;;;;;;;;;;5065786;28;20037;-61
2022/05/08 08:37:30;;;;;;;40.95;38.75;;;;;;;;;;5064004;28;20153;-60
2022/05/08 08:39:56;;;;;;;39.63;37.60;;;;;;;;;;5064597;28;20590;-61
2022/05/08 08:42:29;;;;;;;28.23;26.52;;;;;;;;;;5064247;28;20040;-61
2022/05/08 08:47:54;;;;;;;36.05;34.10;;;;;;;;;;5064447;28;20363;-61
2022/05/08 08:50:25;;;;;;;42.80;40.55;;;;;;;;;;5063579;28;20102;-61
2022/05/08 08:52:51;;;;;;;34.22;32.40;;;;;;;;;;5065764;28;20067;-61
2022/05/08 08:55:17;;;;;;;45.88;43.38;;;;;;;;;;5064496;28;20035;-61
2022/05/08 08:57:45;;;;;;;43.33;40.90;;;;;;;;;;5063994;28;20094;-60
2022/05/08 09:00:13;;;;;;;36.83;34.80;;;;;;;;;;5063813;28;20024;-61
2022/05/08 09:02:38;;;;;;;22.35;20.92;;;;;;;;;;5064180;28;20036;-60
2022/05/08 09:05:07;;;;;;;32.42;30.58;;;;;;;;;;5063431;28;20090;-59
2022/05/08 09:07:42;;;;;;;36.72;34.83;;;;;;;;;;5064529;28;20067;-60
2022/05/08 09:10:21;;;;;;;33.13;31.27;;;;;;;;;;5065161;28;20037;-61
2022/05/08 09:12:52;;;;;;;24.25;22.85;;;;;;;;;;5063616;28;20719;-61
2022/05/08 09:15:19;;;;;;;47.03;44.53;;;;;;;;;;5063462;28;20032;-61
2022/05/08 09:17:47;;;;;;;23.70;22.40;;;;;;;;;;5063036;28;20033;-61
2022/05/08 09:20:48;;;;;;;41.53;39.40;;;;;;;;;;5064332;28;20032;-61
2022/05/08 09:23:24;;;;;;;21.25;20.02;;;;;;;;;;5063358;28;20044;-61
2022/05/08 09:25:56;;;;;;;25.50;24.05;;;;;;;;;;5064581;28;20107;-61
2022/05/08 09:28:41;;;;;;;60.67;57.65;;;;;;;;;;5063406;28;20044;-61
2022/05/08 09:31:08;;;;;;;25.30;23.80;;;;;;;;;;5063871;28;20032;-61
2022/05/08 09:33:34;;;;;;;25.63;24.23;;;;;;;;;;5063693;28;20043;-61
2022/05/08 09:36:04;;;;;;;30.80;29.10;;;;;;;;;;5063711;28;20370;-62
2022/05/08 09:38:47;;;;;;;24.73;23.35;;;;;;;;;;5064378;28;20472;-62
2022/05/08 09:41:14;;;;;;;23.48;22.17;;;;;;;;;;5064172;28;20040;-62
2022/05/08 09:43:40;;;;;;;36.72;34.78;;;;;;;;;;5063729;28;20040;-62
2022/05/08 09:46:07;;;;;;;27.25;25.75;;;;;;;;;;5064119;28;20043;-61
2022/05/08 09:48:33;;;;;;;31.35;29.67;;;;;;;;;;5062561;28;20127;-62
2022/05/08 09:51:01;;;;;;;30.45;28.80;;;;;;;;;;5062996;28;20028;-62
2022/05/08 09:53:28;;;;;;;32.20;30.50;;;;;;;;;;5064203;28;20043;-62
2022/05/08 09:55:57;;;;;;;29.00;27.40;;;;;;;;;;5063204;28;20040;-62
2022/05/08 09:58:23;;;;;;;31.50;29.75;;;;;;;;;;5062996;28;20094;-62
2022/05/08 10:00:51;;;;;;;29.10;27.55;;;;;;;;;;5078818;28;20036;-62
2022/05/08 10:03:18;;;;;;;29.73;28.17;;;;;;;;;;5064515;28;20585;-62
2022/05/08 10:05:44;;;;;;;37.17;35.22;;;;;;;;;;5063780;28;20032;-63
2022/05/08 10:08:12;;;;;;;39.60;37.47;;;;;;;;;;5062439;28;20135;-67
2022/05/08 10:13:53;;;;;;;34.42;32.65;;;;;;;;;;5061269;28;20036;-68
2022/05/08 10:16:56;;;;;;;43.53;41.28;;;;;;;;;;5064753;28;20024;-63
2022/05/08 10:19:27;;;;;;;23.15;21.88;;;;;;;;;;5062697;28;20463;-62
2022/05/08 10:22:13;;;;;;;24.83;23.45;;;;;;;;;;5064109;28;20116;-61
2022/05/08 10:24:40;;;;;;;44.47;42.05;;;;;;;;;;5063360;28;20904;-62
2022/05/08 10:27:26;;;;;;;25.45;24.05;;;;;;;;;;5063880;28;20103;-62
2022/05/08 10:29:54;;;;;;;23.70;22.40;;;;;;;;;;5063250;28;20127;-62
2022/05/08 10:32:32;;;;;;;24.75;23.35;;;;;;;;;;5063018;28;20040;-62
2022/05/08 10:35:16;;;;;;;29.35;27.75;;;;;;;;;;5063138;28;20025;-63
2022/05/08 10:37:46;;;;;;;39.30;37.28;;;;;;;;;;5061972;28;20048;-62
2022/05/08 10:40:23;;;;;;;25.95;23.92;;;;;;;;;;5063958;28;20116;-62
2022/05/08 10:42:49;;;;;;;30.67;28.98;;;;;;;;;;5063649;28;20472;-63
2022/05/08 10:45:30;;;;;;;28.90;27.30;;;;;;;;;;5064280;28;20032;-63
2022/05/08 10:48:17;;;;;;;27.45;25.95;;;;;;;;;;5062821;28;20013;-63
2022/05/08 10:50:54;;;;;;;24.25;22.95;;;;;;;;;;5061046;28;20025;-63
2022/05/08 10:53:33;;;;;;;26.50;25.10;;;;;;;;;;5063845;28;20035;-63
2022/05/08 10:56:07;;;;;;;22.33;21.10;;;;;;;;;;5064085;28;20028;-62
2022/05/08 10:58:34;;;;;;;26.17;24.77;;;;;;;;;;5062884;28;20052;-63
2022/05/08 11:01:02;;;;;;;25.77;24.30;;;;;;;;;;5063752;28;20075;-63
2022/05/08 11:03:29;;;;;;;25.80;24.40;;;;;;;;;;5062666;28;20032;-62
2022/05/08 11:05:55;;;;;;;27.08;25.58;;;;;;;;;;5063915;28;20024;-63
2022/05/08 11:08:29;;;;;;;28.92;26.20;;;;;;;;;;5063523;28;20397;-63
2022/05/08 11:11:03;;;;;;;34.45;32.55;;;;;;;;;;5063273;28;20047;-63
2022/05/08 11:13:45;;;;;;;36.47;34.55;;;;;;;;;;5055885;28;20032;-62
2022/05/08 11:16:12;;;;;;;40.28;38.17;;;;;;;;;;5063523;28;20474;-64
2022/05/08 11:18:38;;;;;;;50.78;48.17;;;;;;;;;;5060561;28;20149;-62
2022/05/08 11:21:08;;;;;;;49.10;46.40;;;;;;;;;;5063308;28;20464;-63
2022/05/08 11:23:42;;;;;;;44.72;42.45;;;;;;;;;;5063432;28;20061;-64
2022/05/08 11:26:09;;;;;;;50.67;48.10;;;;;;;;;;5065234;28;20024;-62
2022/05/08 11:28:46;;;;;;;36.40;34.50;;;;;;;;;;5066560;28;20029;-63
2022/05/08 11:31:17;;;;;;;40.25;38.17;;;;;;;;;;5064817;28;20043;-62
2022/05/08 11:36:30;;;;;;;50.38;47.78;;;;;;;;;;5066917;28;20036;-63
2022/05/08 11:39:04;;;;;;;58.35;55.42;;;;;;;;;;5065544;28;20044;-62
2022/05/08 11:41:38;;;;;;;91.95;87.40;;;;;;;;;;5066542;28;20033;-61
2022/05/08 11:44:16;;;;;;;96.78;91.97;;;;;;;;;;5065426;28;20046;-62
2022/05/08 11:46:46;;;;;;;43.03;40.75;;;;;;;;;;5059296;28;20032;-63
2022/05/08 11:49:12;;;;;;;;;;;;;;;;;;5066367;28;20621;-64
2022/05/08 11:51:41;;;;;;;89.90;85.43;;;;;;;;;;5066433;28;19938;-63
2022/05/08 11:54:19;;;;;;;80.70;76.55;;;;;;;;;;5066601;28;20465;-63
2022/05/08 11:56:45;;;;;;;97.88;93.05;;;;;;;;;;5066091;28;20040;-69
2022/05/08 11:59:37;;;;;;;96.35;91.63;;;;;;;;;;5066639;28;20043;-69
2022/05/08 12:02:03;;;;;;;79.22;75.25;;;;;;;;;;5062981;28;20102;-70
2022/05/08 12:04:33;;;;;;;37.40;35.47;;;;;;;;;;5066434;28;20656;-72
2022/05/08 12:07:08;;;;;;;113.47;107.80;;;;;;;;;;5064752;28;20032;-70
2022/05/08 12:09:46;;;;;;;131.27;124.78;;;;;;;;;;5065610;28;20063;-70
2022/05/08 12:12:27;;;;;;;131.20;124.65;;;;;;;;;;5065580;28;20036;-69
2022/05/08 12:15:03;;;;;;;127.53;121.22;;;;;;;;;;5064376;28;20590;-64
2022/05/08 12:17:43;;;;;;;132.73;126.20;;;;;;;;;;5065157;28;20045;-64
2022/05/08 12:20:11;;;;;;;113.68;107.93;;;;;;;;;;5065627;28;20032;-63
2022/05/08 12:22:37;;;;;;;87.43;83.03;;;;;;;;;;5064942;28;20589;-63
2022/05/08 12:25:03;;;;;;;104.50;99.30;;;;;;;;;;5065625;28;20040;-63
2022/05/08 12:27:29;;;;;;;138.40;131.52;;;;;;;;;;5064937;28;20037;-63
2022/05/08 12:29:55;;;;;;;109.85;104.40;;;;;;;;;;5065416;28;20025;-64
2022/05/08 12:32:26;;;;;;;146.13;138.90;;;;;;;;;;5064934;28;20035;-63
2022/05/08 12:34:53;;;;;;;133.32;126.75;;;;;;;;;;5053234;28;20024;-64
2022/05/08 12:37:20;;;;;;;119.07;113.13;;;;;;;;;;5061002;28;20035;-63
2022/05/08 12:39:46;;;;;;;145.68;138.48;;;;;;;;;;5063053;28;20032;-64
2022/05/08 12:42:13;;;;;;;151.95;144.32;;;;;;;;;;5064113;28;20028;-68
2022/05/08 12:44:39;;;;;;;109.65;104.15;;;;;;;;;;5060764;28;20029;-68
2022/05/08 12:47:10;;;;;;;91.85;87.25;;;;;;;;;;5065216;28;20174;-68
2022/05/08 12:49:36;;;;;;;61.88;58.78;;;;;;;;;;5063077;28;20032;-67
2022/05/08 12:52:04;;;;;;;73.40;69.75;;;;;;;;;;5066480;28;20112;-67
2022/05/08 12:54:29;;;;;;;65.53;62.17;;;;;;;;;;5064015;28;20052;-68
2022/05/08 12:56:55;;;;;;;73.85;70.20;;;;;;;;;;5064117;28;20024;-69
2022/05/08 13:02:05;;;;;;;67.13;63.75;;;;;;;;;;5064389;28;20074;-69
2022/05/08 13:04:30;;;;;;;67.22;63.88;;;;;;;;;;5064898;28;20064;-67
2022/05/08 13:06:56;;;;;;;79.30;75.40;;;;;;;;;;5064988;28;20074;-66
2022/05/08 13:09:21;;;;;;;82.85;78.78;;;;;;;;;;5063690;28;20028;-68
2022/05/08 13:11:48;;;;;;;93.15;88.55;;;;;;;;;;5064650;28;20062;-68
2022/05/08 13:14:13;;;;;;;92.43;87.88;;;;;;;;;;5064004;28;20537;-69
2022/05/08 13:16:39;;;;;;;82.22;78.00;;;;;;;;;;5063654;28;20032;-69
2022/05/08 13:19:04;;;;;;;90.93;86.45;;;;;;;;;;5064738;28;20071;-69
2022/05/08 13:21:31;;;;;;;77.05;73.25;;;;;;;;;;5064173;28;20442;-69
2022/05/08 13:23:56;;;;;;;75.95;71.97;;;;;;;;;;5063584;28;20473;-69
2022/05/08 13:26:22;;;;;;;93.65;89.00;;;;;;;;;;5063751;28;20032;-67
2022/05/08 13:28:47;;;;;;;81.20;77.18;;;;;;;;;;5064587;28;20047;-68
2022/05/08 13:31:13;;;;;;;76.72;72.90;;;;;;;;;;5064007;28;20059;-70
2022/05/08 13:33:39;;;;;;;86.63;82.30;;;;;;;;;;5063808;28;20693;-70
2022/05/08 13:36:05;;;;;;;97.38;92.60;;;;;;;;;;5064255;28;20032;-67
2022/05/08 13:38:31;;;;;;;96.90;92.10;;;;;;;;;;5064323;28;20120;-66
2022/05/08 13:40:57;;;;;;;90.65;86.20;;;;;;;;;;5064707;28;20140;-68
2022/05/08 13:43:23;;;;;;;85.80;81.60;;;;;;;;;;5063787;28;20047;-67
2022/05/08 13:45:49;;;;;;;102.65;97.57;;;;;;;;;;5063296;28;20111;-67
2022/05/08 13:48:15;;;;;;;101.13;96.13;;;;;;;;;;5055711;28;20033;-65
2022/05/08 13:50:42;;;;;;;105.85;100.65;;;;;;;;;;5063394;28;20036;-67
2022/05/08 13:53:08;;;;;;;101.72;96.75;;;;;;;;;;5063089;28;20104;-66
2022/05/08 13:55:39;;;;;;;94.75;90.10;;;;;;;;;;5063802;28;20067;-66
2022/05/08 13:58:09;;;;;;;91.43;86.95;;;;;;;;;;5064238;28;20075;-68
2022/05/08 14:00:35;;;;;;;73.78;70.15;;;;;;;;;;5063499;28;20472;-65
2022/05/08 14:03:02;;;;;;;71.43;67.82;;;;;;;;;;5063934;28;20061;-65
2022/05/08 14:05:28;;;;;;;91.07;86.57;;;;;;;;;;5063414;28;20025;-64
2022/05/08 14:07:54;;;;;;;81.78;77.70;;;;;;;;;;5063674;28;21021;-65
2022/05/08 14:10:19;;;;;;;71.53;67.97;;;;;;;;;;5062703;28;20179;-65
2022/05/08 14:12:45;;;;;;;78.28;74.28;;;;;;;;;;5063562;28;20116;-64
2022/05/08 14:15:11;;;;;;;105.82;100.43;;;;;;;;;;5064642;28;20042;-65
2022/05/08 14:17:37;;;;;;;117.70;111.68;;;;;;;;;;5063630;28;20040;-63
2022/05/08 14:20:03;;;;;;;130.38;123.80;;;;;;;;;;5063803;28;20028;-64
2022/05/08 14:22:28;;;;;;;142.68;135.55;;;;;;;;;;5064185;28;20151;-63
2022/05/08 14:24:54;;;;;;;96.18;91.38;;;;;;;;;;5062067;28;20119;-64
2022/05/08 14:27:21;;;;;;;135.02;128.27;;;;;;;;;;5062593;28;20028;-63
2022/05/08 14:29:47;;;;;;;140.32;133.38;;;;;;;;;;5063621;28;20025;-64
2022/05/08 14:37:40;;;;;;;116.20;110.40;;;;;;;;;;5063940;28;20188;-63
2022/05/08 14:40:06;;;;;;;98.47;93.57;;;;;;;;;;5062758;28;20025;-63
2022/05/08 14:42:31;;;;;;;106.90;101.53;;;;;;;;;;5063234;28;20126;-62
2022/05/08 14:44:57;;;;;;;114.30;108.65;;;;;;;;;;5062896;28;20166;-62
2022/05/08 14:47:22;;;;;;;101.15;96.13;;;;;;;;;;5062940;28;20108;-63
2022/05/08 14:49:48;;;;;;;122.57;116.53;;;;;;;;;;5062910;28;20043;-62
2022/05/08 14:52:13;;;;;;;103.13;97.88;;;;;;;;;;5064087;28;20029;-62
2022/05/08 14:54:39;;;;;;;115.88;110.15;;;;;;;;;;5063462;28;20039;-61
2022/05/08 14:57:09;;;;;;;111.00;105.35;;;;;;;;;;5062178;28;20028;-61